Time;durP1;ratioP1;P1;durP2;ratioP2;P2;SDS_P1;SDS_P2;PMS_P1;PMS_P2;Temp;Humidity;BMP_temperature;BMP_pressure;BME280_temperature;BME280_humidity;BME280_pressure;Samples;Min_cycle;Max_cycle;Signal;HPM_P1;HPM_P2
2023/05/02 00:01:25;;;;;;;;;11.00;11.00;;;;;;;;5032578;28;10647;-80
2023/05/02 00:03:54;;;;;;;;;11.25;10.75;;;;;;;;5031708;28;10877;-80
2023/05/02 00:06:21;;;;;;;;;6.75;6.75;;;;;;;;5032476;28;10886;-81
2023/05/02 00:08:49;;;;;;;;;9.00;9.00;;;;;;;;5032099;28;10795;-80
2023/05/02 00:11:17;;;;;;;;;10.50;10.50;;;;;;;;5031738;28;10981;-81
2023/05/02 00:13:44;;;;;;;;;9.25;9.25;;;;;;;;5029965;28;10879;-81
2023/05/02 00:16:11;;;;;;;;;5.50;5.50;;;;;;;;5031008;28;11045;-80
2023/05/02 00:18:38;;;;;;;;;11.00;10.75;;;;;;;;5024832;28;10853;-81
2023/05/02 00:21:07;;;;;;;;;6.50;6.50;;;;;;;;5024955;28;10853;-80
2023/05/02 00:23:35;;;;;;;;;7.50;7.50;;;;;;;;5025736;28;10831;-80
2023/05/02 00:26:02;;;;;;;;;8.00;8.00;;;;;;;;5028040;28;10854;-80
2023/05/02 00:28:29;;;;;;;;;9.25;8.75;;;;;;;;5026303;28;11098;-80
2023/05/02 00:30:58;;;;;;;;;14.50;8.75;;;;;;;;5028826;28;10822;-80
2023/05/02 00:33:25;;;;;;;;;8.50;8.50;;;;;;;;5031895;28;10983;-78
2023/05/02 00:35:52;;;;;;;;;11.00;8.00;;;;;;;;5029254;28;11026;-80
2023/05/02 00:38:21;;;;;;;;;9.75;9.00;;;;;;;;5014404;28;11035;-78
2023/05/02 00:40:51;;;;;;;;;8.00;7.00;;;;;;;;5030608;28;11972;-82
2023/05/02 00:43:19;;;;;;;;;7.00;3.50;;;;;;;;5034608;28;11101;-79
2023/05/02 00:45:46;;;;;;;;;8.25;8.25;;;;;;;;5017719;28;11116;-79
2023/05/02 00:48:13;;;;;;;;;8.75;7.25;;;;;;;;5030948;28;10976;-79
2023/05/02 00:50:42;;;;;;;;;9.00;8.75;;;;;;;;5030639;28;11186;-80
2023/05/02 00:53:10;;;;;;;;;8.50;8.00;;;;;;;;5030416;28;11106;-81
2023/05/02 00:55:39;;;;;;;;;9.25;9.25;;;;;;;;5025520;28;10893;-81
2023/05/02 00:58:09;;;;;;;;;5.50;5.50;;;;;;;;5031170;28;11018;-80
2023/05/02 01:00:53;;;;;;;;;7.00;7.00;;;;;;;;5027962;28;11068;-80
2023/05/02 01:03:28;;;;;;;;;14.00;10.00;;;;;;;;5025911;28;11146;-81
2023/05/02 01:06:03;;;;;;;;;8.00;8.00;;;;;;;;5018583;28;11270;-84
2023/05/02 01:08:35;;;;;;;;;13.25;9.00;;;;;;;;5020106;28;11136;-82
2023/05/02 01:11:11;;;;;;;;;8.00;7.50;;;;;;;;5024441;28;11942;-82
2023/05/02 01:13:39;;;;;;;;;9.75;9.75;;;;;;;;5017964;28;11126;-81
2023/05/02 01:16:08;;;;;;;;;10.00;9.00;;;;;;;;5029241;28;11084;-81
2023/05/02 01:18:38;;;;;;;;;9.00;9.00;;;;;;;;5030454;28;11098;-82
2023/05/02 01:21:07;;;;;;;;;11.50;10.25;;;;;;;;5030434;28;11092;-82
2023/05/02 01:23:42;;;;;;;;;14.50;10.00;;;;;;;;5030480;28;11153;-82
2023/05/02 01:26:17;;;;;;;;;10.00;10.00;;;;;;;;5025978;28;11037;-82
2023/05/02 01:28:57;;;;;;;;;9.50;9.50;;;;;;;;5030128;28;11835;-81
2023/05/02 01:31:28;;;;;;;;;11.00;10.00;;;;;;;;5022959;28;11062;-82
2023/05/02 01:33:56;;;;;;;;;5.75;5.75;;;;;;;;5031932;28;11075;-81
2023/05/02 01:36:28;;;;;;;;;11.50;10.50;;;;;;;;5032000;28;11232;-82
2023/05/02 01:38:57;;;;;;;;;13.50;9.75;;;;;;;;5014896;28;11183;-81
2023/05/02 01:41:26;;;;;;;;;15.25;14.75;;;;;;;;5028739;28;12004;-82
2023/05/02 01:43:58;;;;;;;;;9.75;9.75;;;;;;;;5030595;28;11315;-82
2023/05/02 01:46:27;;;;;;;;;11.75;11.00;;;;;;;;5029351;28;11119;-82
2023/05/02 01:48:57;;;;;;;;;12.00;10.00;;;;;;;;5028521;28;11212;-82
2023/05/02 01:51:30;;;;;;;;;12.50;12.25;;;;;;;;5030077;28;11415;-81
2023/05/02 01:54:00;;;;;;;;;10.25;9.25;;;;;;;;5029708;28;11152;-82
2023/05/02 01:56:29;;;;;;;;;10.00;10.00;;;;;;;;5029696;28;11047;-82
2023/05/02 01:58:58;;;;;;;;;9.75;9.75;;;;;;;;5030188;28;11064;-81
2023/05/02 02:01:27;;;;;;;;;11.25;11.25;;;;;;;;5011687;28;11172;-82
2023/05/02 02:03:55;;;;;;;;;17.75;15.75;;;;;;;;5029739;28;11169;-81
2023/05/02 02:06:23;;;;;;;;;15.00;12.75;;;;;;;;5028521;28;11169;-82
2023/05/02 02:08:51;;;;;;;;;20.75;17.25;;;;;;;;5029288;28;11194;-81
2023/05/02 02:11:24;;;;;;;;;11.50;11.50;;;;;;;;5029514;28;11101;-82
2023/05/02 02:13:59;;;;;;;;;17.25;15.25;;;;;;;;5027145;28;11249;-83
2023/05/02 02:16:31;;;;;;;;;18.00;16.75;;;;;;;;5029408;28;11194;-81
2023/05/02 02:19:01;;;;;;;;;21.25;19.00;;;;;;;;5025672;28;12001;-82
2023/05/02 02:21:29;;;;;;;;;15.00;15.00;;;;;;;;5029318;28;11253;-82
2023/05/02 02:23:58;;;;;;;;;14.75;14.50;;;;;;;;5029206;28;10977;-81
2023/05/02 02:26:25;;;;;;;;;20.75;15.75;;;;;;;;5021536;28;10961;-81
2023/05/02 02:28:53;;;;;;;;;23.75;18.75;;;;;;;;5030039;28;11037;-81
2023/05/02 02:31:24;;;;;;;;;17.75;17.75;;;;;;;;5027527;28;11068;-81
2023/05/02 02:33:52;;;;;;;;;19.25;19.25;;;;;;;;5017281;28;11775;-81
2023/05/02 02:36:26;;;;;;;;;16.50;14.50;;;;;;;;5007700;28;10882;-81
2023/05/02 02:39:03;;;;;;;;;15.25;14.00;;;;;;;;5023615;28;10862;-81
2023/05/02 02:41:36;;;;;;;;;17.50;15.50;;;;;;;;5031893;28;10800;-82
2023/05/02 02:44:10;;;;;;;;;14.25;13.50;;;;;;;;5019970;28;10909;-81
2023/05/02 02:46:49;;;;;;;;;20.25;14.00;;;;;;;;5028953;28;10958;-82
2023/05/02 02:49:27;;;;;;;;;15.00;15.00;;;;;;;;5028835;28;10878;-83
2023/05/02 02:52:02;;;;;;;;;15.75;15.25;;;;;;;;5021510;28;10829;-82
2023/05/02 02:54:33;;;;;;;;;13.75;13.75;;;;;;;;5029083;28;10859;-83
2023/05/02 02:57:04;;;;;;;;;16.25;13.25;;;;;;;;5028758;28;10918;-81
2023/05/02 02:59:34;;;;;;;;;19.75;19.75;;;;;;;;5026007;28;10894;-81
2023/05/02 03:02:08;;;;;;;;;17.75;17.75;;;;;;;;5019149;28;10831;-82
2023/05/02 03:04:38;;;;;;;;;19.75;18.50;;;;;;;;5025566;28;10939;-81
2023/05/02 03:07:05;;;;;;;;;14.50;14.00;;;;;;;;5029066;28;11020;-81
2023/05/02 03:09:41;;;;;;;;;18.50;16.00;;;;;;;;5027785;28;10968;-82
2023/05/02 03:12:08;;;;;;;;;19.50;17.75;;;;;;;;5027096;28;10833;-81
2023/05/02 03:14:36;;;;;;;;;20.25;16.75;;;;;;;;5027138;28;10830;-81
2023/05/02 03:17:07;;;;;;;;;20.50;17.50;;;;;;;;5026606;28;11473;-82
2023/05/02 03:19:34;;;;;;;;;21.75;19.25;;;;;;;;5028101;28;10563;-82
2023/05/02 03:22:01;;;;;;;;;18.00;18.00;;;;;;;;5026905;28;10772;-83
2023/05/02 03:24:28;;;;;;;;;20.00;19.00;;;;;;;;5025853;28;10785;-82
2023/05/02 03:26:58;;;;;;;;;18.50;17.75;;;;;;;;5028353;28;11484;-82
2023/05/02 03:29:29;;;;;;;;;16.50;11.75;;;;;;;;5021327;28;10717;-82
2023/05/02 03:31:57;;;;;;;;;26.25;21.00;;;;;;;;5030597;28;10577;-83
2023/05/02 03:34:26;;;;;;;;;18.50;15.25;;;;;;;;5030000;28;10723;-82
2023/05/02 03:36:53;;;;;;;;;16.00;16.00;;;;;;;;5028404;28;10910;-81
2023/05/02 03:39:20;;;;;;;;;19.25;18.00;;;;;;;;5033624;28;10696;-81
2023/05/02 03:41:48;;;;;;;;;26.00;20.00;;;;;;;;5034694;28;10773;-81
2023/05/02 03:44:15;;;;;;;;;17.75;17.25;;;;;;;;5029487;28;10669;-82
2023/05/02 03:46:42;;;;;;;;;21.25;18.25;;;;;;;;5028694;28;10650;-81
2023/05/02 03:49:10;;;;;;;;;20.25;18.75;;;;;;;;5029498;28;10715;-82
2023/05/02 03:51:39;;;;;;;;;16.25;13.00;;;;;;;;5035021;28;10889;-83
2023/05/02 03:54:06;;;;;;;;;25.00;21.25;;;;;;;;5032005;28;10736;-82
2023/05/02 03:56:33;;;;;;;;;12.50;11.00;;;;;;;;5017931;28;10633;-82
2023/05/02 03:59:01;;;;;;;;;20.50;19.00;;;;;;;;5027679;28;10489;-81
2023/05/02 04:01:30;;;;;;;;;20.25;15.50;;;;;;;;5026841;28;10653;-82
2023/05/02 04:04:00;;;;;;;;;18.25;17.25;;;;;;;;5027061;28;10603;-80
2023/05/02 04:06:28;;;;;;;;;24.25;20.50;;;;;;;;5027985;28;10744;-81
2023/05/02 04:08:59;;;;;;;;;24.50;20.75;;;;;;;;5027079;28;10772;-81
2023/05/02 04:11:27;;;;;;;;;27.75;21.25;;;;;;;;5027644;28;10646;-81
2023/05/02 04:13:55;;;;;;;;;22.50;19.25;;;;;;;;5025830;28;10662;-81
2023/05/02 04:16:22;;;;;;;;;18.25;18.25;;;;;;;;5028928;28;10741;-81
2023/05/02 04:18:49;;;;;;;;;13.25;13.25;;;;;;;;5031775;28;10657;-82
2023/05/02 04:21:16;;;;;;;;;16.00;16.00;;;;;;;;5032200;28;10481;-81
2023/05/02 04:23:44;;;;;;;;;19.25;17.25;;;;;;;;5032406;28;10564;-81
2023/05/02 04:26:12;;;;;;;;;20.25;17.75;;;;;;;;5032319;28;10719;-81
2023/05/02 04:28:40;;;;;;;;;26.75;23.00;;;;;;;;5031821;28;10663;-80
2023/05/02 04:31:07;;;;;;;;;18.75;18.25;;;;;;;;5030792;28;10652;-82
2023/05/02 04:33:35;;;;;;;;;19.75;19.25;;;;;;;;5031846;28;10508;-80
2023/05/02 04:36:02;;;;;;;;;24.25;20.50;;;;;;;;5022690;28;10698;-80
2023/05/02 04:38:30;;;;;;;;;28.00;25.00;;;;;;;;5030389;28;10709;-81
2023/05/02 04:40:57;;;;;;;;;27.50;25.00;;;;;;;;5030831;28;10659;-82
2023/05/02 04:43:28;;;;;;;;;26.00;18.25;;;;;;;;5031026;28;10651;-83
2023/05/02 04:45:57;;;;;;;;;24.50;22.00;;;;;;;;5018369;28;10671;-83
2023/05/02 04:48:25;;;;;;;;;25.50;21.00;;;;;;;;5030577;28;10490;-82
2023/05/02 04:50:53;;;;;;;;;24.00;24.00;;;;;;;;5025441;28;10635;-81
2023/05/02 04:53:22;;;;;;;;;26.50;24.25;;;;;;;;5030269;28;10416;-82
2023/05/02 04:55:50;;;;;;;;;18.00;18.00;;;;;;;;5030059;28;10582;-82
2023/05/02 04:58:17;;;;;;;;;16.50;14.25;;;;;;;;5030142;28;10480;-82
2023/05/02 05:00:47;;;;;;;;;20.25;18.75;;;;;;;;5029874;28;10543;-81
2023/05/02 05:03:15;;;;;;;;;12.00;12.00;;;;;;;;5030468;28;10528;-82
2023/05/02 05:05:42;;;;;;;;;22.75;20.25;;;;;;;;5029339;28;10337;-80
2023/05/02 05:08:11;;;;;;;;;20.50;19.00;;;;;;;;5029588;28;10463;-80
2023/05/02 05:10:42;;;;;;;;;25.00;19.25;;;;;;;;5031805;28;10520;-82
2023/05/02 05:13:11;;;;;;;;;18.25;16.25;;;;;;;;5029905;28;10484;-80
2023/05/02 05:15:39;;;;;;;;;25.50;23.00;;;;;;;;5030445;28;10594;-82
2023/05/02 05:18:09;;;;;;;;;27.00;21.50;;;;;;;;5038182;28;10450;-82
2023/05/02 05:20:38;;;;;;;;;24.25;20.00;;;;;;;;5030999;28;10581;-82
2023/05/02 05:23:06;;;;;;;;;25.75;22.75;;;;;;;;5030146;28;10444;-83
2023/05/02 05:25:36;;;;;;;;;23.75;22.25;;;;;;;;5031369;28;10436;-85
2023/05/02 05:28:03;;;;;;;;;17.75;17.75;;;;;;;;5031381;28;10387;-79
2023/05/02 05:30:30;;;;;;;;;31.75;29.00;;;;;;;;5033577;28;10310;-81
2023/05/02 05:33:00;;;;;;;;;23.25;21.00;;;;;;;;5043756;28;11344;-79
2023/05/02 05:35:29;;;;;;;;;25.00;22.75;;;;;;;;5039731;28;10516;-78
2023/05/02 05:37:56;;;;;;;;;25.75;22.50;;;;;;;;5048987;28;11379;-76
2023/05/02 05:40:23;;;;;;;;;24.25;23.75;;;;;;;;5046941;28;10578;-77
2023/05/02 05:42:51;;;;;;;;;20.25;20.25;;;;;;;;5052246;28;10460;-77
2023/05/02 05:45:18;;;;;;;;;28.75;25.25;;;;;;;;5049076;28;10407;-77
2023/05/02 05:47:45;;;;;;;;;23.00;19.00;;;;;;;;5049338;28;10573;-76
2023/05/02 05:50:12;;;;;;;;;31.25;25.75;;;;;;;;5048633;28;10534;-78
2023/05/02 05:52:41;;;;;;;;;23.00;23.00;;;;;;;;5048615;28;10580;-78
2023/05/02 05:55:09;;;;;;;;;22.00;20.75;;;;;;;;5047770;28;10951;-76
2023/05/02 05:57:36;;;;;;;;;21.00;21.00;;;;;;;;5039709;28;10330;-79
2023/05/02 06:00:04;;;;;;;;;31.50;24.50;;;;;;;;5048555;28;10729;-78
2023/05/02 06:02:31;;;;;;;;;24.75;22.00;;;;;;;;5047042;28;10284;-77
2023/05/02 06:04:58;;;;;;;;;26.75;24.50;;;;;;;;5049293;28;10258;-75
2023/05/02 06:07:25;;;;;;;;;26.25;20.50;;;;;;;;5038924;28;11223;-78
2023/05/02 06:09:54;;;;;;;;;21.50;21.00;;;;;;;;5051070;28;11242;-75
2023/05/02 06:12:21;;;;;;;;;17.25;17.00;;;;;;;;5050977;28;10365;-78
2023/05/02 06:14:49;;;;;;;;;19.00;18.75;;;;;;;;5049460;28;10435;-75
2023/05/02 06:17:16;;;;;;;;;23.25;21.00;;;;;;;;5048697;28;10242;-76
2023/05/02 06:19:43;;;;;;;;;21.25;20.50;;;;;;;;5052415;28;10365;-77
2023/05/02 06:22:12;;;;;;;;;21.75;20.00;;;;;;;;5050603;28;10229;-76
2023/05/02 06:24:40;;;;;;;;;23.00;21.00;;;;;;;;5049457;28;10320;-78
2023/05/02 06:27:08;;;;;;;;;27.75;24.25;;;;;;;;5046055;28;10332;-77
2023/05/02 06:29:35;;;;;;;;;23.00;20.25;;;;;;;;5041369;28;10366;-77
2023/05/02 06:32:03;;;;;;;;;31.00;28.00;;;;;;;;5024473;28;10368;-75
2023/05/02 06:34:32;;;;;;;;;33.00;27.75;;;;;;;;5027284;28;10680;-77
2023/05/02 06:37:00;;;;;;;;;29.75;29.25;;;;;;;;5020091;28;10742;-75
2023/05/02 06:39:27;;;;;;;;;25.00;23.25;;;;;;;;5027354;28;10410;-76
2023/05/02 06:41:57;;;;;;;;;23.00;21.00;;;;;;;;5022482;28;10399;-76
2023/05/02 06:44:26;;;;;;;;;26.50;23.00;;;;;;;;5026488;28;10354;-74
2023/05/02 06:46:54;;;;;;;;;23.75;22.25;;;;;;;;5025660;28;10254;-76
2023/05/02 06:49:21;;;;;;;;;24.75;23.25;;;;;;;;5018410;28;10233;-74
2023/05/02 06:51:48;;;;;;;;;21.50;20.75;;;;;;;;5027617;28;10187;-76
2023/05/02 06:54:16;;;;;;;;;25.25;24.00;;;;;;;;5027999;28;10088;-76
2023/05/02 06:56:44;;;;;;;;;25.75;25.75;;;;;;;;5031713;28;10415;-77
2023/05/02 06:59:12;;;;;;;;;28.00;24.50;;;;;;;;5027092;28;10186;-77
2023/05/02 07:01:40;;;;;;;;;33.25;29.25;;;;;;;;5034244;28;10237;-75
2023/05/02 07:04:08;;;;;;;;;26.25;25.75;;;;;;;;5039913;28;10302;-73
2023/05/02 07:06:35;;;;;;;;;21.50;17.75;;;;;;;;5047251;28;10340;-76
2023/05/02 07:09:02;;;;;;;;;28.75;26.25;;;;;;;;5046173;28;10254;-75
2023/05/02 07:11:29;;;;;;;;;26.25;22.50;;;;;;;;5051760;28;10548;-75
2023/05/02 07:13:56;;;;;;;;;27.00;22.75;;;;;;;;5045649;28;10310;-75
2023/05/02 07:16:24;;;;;;;;;23.50;21.00;;;;;;;;5055786;28;10293;-77
2023/05/02 07:18:52;;;;;;;;;23.50;21.75;;;;;;;;5046696;28;11021;-75
2023/05/02 07:21:20;;;;;;;;;24.25;23.75;;;;;;;;5041331;28;10092;-77
2023/05/02 07:23:47;;;;;;;;;31.00;25.00;;;;;;;;5047269;28;10241;-76
2023/05/02 07:26:14;;;;;;;;;23.00;22.00;;;;;;;;5047021;28;10293;-74
2023/05/02 07:28:41;;;;;;;;;19.25;19.25;;;;;;;;5035028;28;10276;-77
2023/05/02 07:31:08;;;;;;;;;24.75;22.75;;;;;;;;5032925;28;11059;-76
2023/05/02 07:33:35;;;;;;;;;20.00;17.25;;;;;;;;5022974;28;10081;-77
2023/05/02 07:36:04;;;;;;;;;32.00;26.50;;;;;;;;5026054;28;10111;-75
2023/05/02 07:38:32;;;;;;;;;23.25;20.50;;;;;;;;5038770;28;10265;-77
2023/05/02 07:40:59;;;;;;;;;29.50;22.75;;;;;;;;5026675;28;10117;-77
2023/05/02 07:43:26;;;;;;;;;29.25;25.75;;;;;;;;5037530;28;10120;-77
2023/05/02 07:45:54;;;;;;;;;28.75;22.75;;;;;;;;5026339;28;9950;-75
2023/05/02 07:48:21;;;;;;;;;29.00;25.75;;;;;;;;5030510;28;10104;-74
2023/05/02 07:50:48;;;;;;;;;23.00;23.00;;;;;;;;5027961;28;10448;-76
2023/05/02 07:53:17;;;;;;;;;25.75;20.25;;;;;;;;5031377;28;10082;-77
2023/05/02 07:55:44;;;;;;;;;13.75;12.50;;;;;;;;5032347;28;9984;-75
2023/05/02 07:58:11;;;;;;;;;31.75;29.00;;;;;;;;5027338;28;10241;-78
2023/05/02 08:00:38;;;;;;;;;30.50;28.25;;;;;;;;5035428;28;10045;-79
2023/05/02 08:03:06;;;;;;;;;32.75;30.25;;;;;;;;5048605;28;9922;-77
2023/05/02 08:05:33;;;;;;;;;34.25;29.00;;;;;;;;5050785;28;9929;-77
2023/05/02 08:08:01;;;;;;;;;28.75;27.50;;;;;;;;5050830;28;10131;-80
2023/05/02 08:10:30;;;;;;;;;36.25;29.50;;;;;;;;5052805;28;10010;-81
2023/05/02 08:12:57;;;;;;;;;45.50;35.50;;;;;;;;5052345;28;9869;-83
2023/05/02 08:15:24;;;;;;;;;40.50;32.00;;;;;;;;5048957;28;9940;-79
2023/05/02 08:17:51;;;;;;;;;18.25;17.25;;;;;;;;5048381;28;10044;-77
2023/05/02 08:20:19;;;;;;;;;33.25;29.75;;;;;;;;5044719;28;9915;-79
2023/05/02 08:22:46;;;;;;;;;27.75;24.00;;;;;;;;5044113;28;9768;-78
2023/05/02 08:25:13;;;;;;;;;31.75;28.25;;;;;;;;5042083;28;9721;-79
2023/05/02 08:27:42;;;;;;;;;24.75;22.25;;;;;;;;5050277;28;9722;-80
2023/05/02 08:30:09;;;;;;;;;22.25;22.25;;;;;;;;5047972;28;9689;-78
2023/05/02 08:32:37;;;;;;;;;24.25;24.25;;;;;;;;5029062;28;9578;-78
2023/05/02 08:35:05;;;;;;;;;23.25;20.75;;;;;;;;5028893;28;9455;-81
2023/05/02 08:37:32;;;;;;;;;26.25;19.75;;;;;;;;5028950;28;9453;-80
2023/05/02 08:40:00;;;;;;;;;21.00;19.00;;;;;;;;5028423;28;9599;-77
2023/05/02 08:42:29;;;;;;;;;28.00;25.00;;;;;;;;5029122;28;9577;-78
2023/05/02 08:44:58;;;;;;;;;23.67;21.00;;;;;;;;5029365;28;9447;-77
2023/05/02 08:47:26;;;;;;;;;25.33;22.33;;;;;;;;5029251;28;9380;-78
2023/05/02 08:49:54;;;;;;;;;26.00;24.00;;;;;;;;5029204;28;9535;-80
2023/05/02 08:52:21;;;;;;;;;19.00;17.67;;;;;;;;5027695;28;9376;-74
2023/05/02 08:54:50;;;;;;;;;28.67;24.00;;;;;;;;5030096;28;10011;-77
2023/05/02 08:57:17;;;;;;;;;26.67;20.67;;;;;;;;5028419;28;11197;-81
2023/05/02 08:59:44;;;;;;;;;25.67;23.00;;;;;;;;5029396;28;9180;-79
2023/05/02 09:02:39;;;;;;;;;20.67;19.00;;;;;;;;5020527;28;9083;-76
2023/05/02 09:05:08;;;;;;;;;25.67;23.00;;;;;;;;5025142;28;9275;-77
2023/05/02 09:07:45;;;;;;;;;21.33;21.00;;;;;;;;5028206;28;8996;-79
2023/05/02 09:10:12;;;;;;;;;17.67;17.67;;;;;;;;5027936;28;9601;-78
2023/05/02 09:12:39;;;;;;;;;14.50;12.25;;;;;;;;5029345;28;8952;-82
2023/05/02 09:15:11;;;;;;;;;24.00;21.50;;;;;;;;5028573;28;8916;-77
2023/05/02 09:17:43;;;;;;;;;22.75;19.50;;;;;;;;5030544;28;8859;-84
2023/05/02 09:20:11;;;;;;;;;26.50;25.00;;;;;;;;5030074;28;8826;-77
2023/05/02 09:22:39;;;;;;;;;17.75;15.00;;;;;;;;5029965;28;8880;-81
2023/05/02 09:25:07;;;;;;;;;18.25;15.75;;;;;;;;5029020;28;8846;-82
2023/05/02 09:27:51;;;;;;;;;18.75;17.00;;;;;;;;5028813;28;8943;-86
2023/05/02 09:30:22;;;;;;;;;19.00;16.75;;;;;;;;5021826;28;8822;-81
2023/05/02 09:32:54;;;;;;;;;20.50;17.00;;;;;;;;5023940;28;8856;-78
2023/05/02 09:35:23;;;;;;;;;21.00;19.00;;;;;;;;5017951;28;9633;-79
2023/05/02 09:37:54;;;;;;;;;21.75;18.25;;;;;;;;5029329;28;8944;-83
2023/05/02 09:40:22;;;;;;;;;22.25;21.00;;;;;;;;5026977;28;8850;-82
2023/05/02 09:42:49;;;;;;;;;27.50;23.25;;;;;;;;5026279;28;8858;-82
2023/05/02 09:45:21;;;;;;;;;20.50;19.00;;;;;;;;5028022;28;8854;-81
2023/05/02 09:47:48;;;;;;;;;19.25;18.50;;;;;;;;5028864;28;8842;-86
2023/05/02 09:50:35;;;;;;;;;19.25;19.25;;;;;;;;5029939;28;8877;-80
2023/05/02 09:53:03;;;;;;;;;21.00;20.50;;;;;;;;5029720;28;8854;-77
2023/05/02 09:55:31;;;;;;;;;20.00;17.25;;;;;;;;5030425;28;8852;-78
2023/05/02 09:57:59;;;;;;;;;23.75;20.00;;;;;;;;5030937;28;8830;-75
2023/05/02 10:00:39;;;;;;;;;21.00;17.00;;;;;;;;5028119;28;8826;-79
2023/05/02 10:03:08;;;;;;;;;22.50;20.75;;;;;;;;5029295;28;8880;-78
2023/05/02 10:05:39;;;;;;;;;25.50;25.00;;;;;;;;5029658;28;8866;-77
2023/05/02 10:08:07;;;;;;;;;20.50;18.75;;;;;;;;5027607;28;8882;-78
2023/05/02 10:10:38;;;;;;;;;23.50;20.50;;;;;;;;5028625;28;8857;-79
2023/05/02 10:13:06;;;;;;;;;22.25;18.75;;;;;;;;5022912;28;8988;-76
2023/05/02 10:15:34;;;;;;;;;18.50;16.00;;;;;;;;5026347;28;8862;-76
2023/05/02 10:18:03;;;;;;;;;16.00;14.00;;;;;;;;5027251;28;8866;-77
2023/05/02 10:20:35;;;;;;;;;14.75;14.75;;;;;;;;5021977;28;9012;-76
2023/05/02 10:23:05;;;;;;;;;9.25;8.00;;;;;;;;5027530;28;8951;-74
2023/05/02 10:25:34;;;;;;;;;15.50;11.50;;;;;;;;5026676;28;8881;-78
2023/05/02 10:28:01;;;;;;;;;18.00;14.25;;;;;;;;5024987;28;8877;-76
2023/05/02 10:30:29;;;;;;;;;17.00;14.00;;;;;;;;5025285;28;8830;-80
2023/05/02 10:33:00;;;;;;;;;15.00;15.00;;;;;;;;5025722;28;8853;-78
2023/05/02 10:35:27;;;;;;;;;14.75;14.50;;;;;;;;5027885;28;8985;-79
2023/05/02 10:37:55;;;;;;;;;17.75;13.75;;;;;;;;5027668;28;8839;-76
2023/05/02 10:40:24;;;;;;;;;17.00;12.75;;;;;;;;5028860;28;8858;-76
2023/05/02 10:42:52;;;;;;;;;14.00;11.75;;;;;;;;5028841;28;8839;-79
2023/05/02 10:45:35;;;;;;;;;14.50;13.75;;;;;;;;5027030;28;8850;-75
2023/05/02 10:48:16;;;;;;;;;10.00;10.00;;;;;;;;5026306;28;8864;-80
2023/05/02 10:50:45;;;;;;;;;9.75;9.75;;;;;;;;5027772;28;8858;-77
2023/05/02 10:53:33;;;;;;;;;12.25;12.25;;;;;;;;5027373;28;8933;-78
2023/05/02 10:56:20;;;;;;;;;10.25;10.25;;;;;;;;5026063;28;8826;-77
2023/05/02 10:58:48;;;;;;;;;17.75;14.00;;;;;;;;5023074;28;8846;-77
2023/05/02 11:01:39;;;;;;;;;12.25;9.75;;;;;;;;5026898;28;9569;-79
2023/05/02 11:04:07;;;;;;;;;10.25;10.25;;;;;;;;5028152;28;8865;-79
2023/05/02 11:06:36;;;;;;;;;13.75;12.75;;;;;;;;5008788;28;8826;-80
2023/05/02 11:09:34;;;;;;;;;13.00;9.50;;;;;;;;5023442;28;8851;-76
2023/05/02 11:12:07;;;;;;;;;9.75;8.75;;;;;;;;5023840;28;8846;-83
2023/05/02 11:14:50;;;;;;;;;9.00;9.00;;;;;;;;5028096;28;8827;-81
2023/05/02 11:17:17;;;;;;;;;8.75;8.25;;;;;;;;5016836;28;8840;-79
2023/05/02 11:20:23;;;;;;;;;12.00;10.50;;;;;;;;5022046;28;8877;-81
2023/05/02 11:22:51;;;;;;;;;11.00;9.25;;;;;;;;5015163;28;8844;-78
2023/05/02 11:25:32;;;;;;;;;11.50;10.00;;;;;;;;5026373;28;8866;-79
2023/05/02 11:28:01;;;;;;;;;10.50;9.00;;;;;;;;5022847;28;8865;-84
2023/05/02 11:30:42;;;;;;;;;12.50;10.50;;;;;;;;5025989;28;8921;-85
2023/05/02 11:33:28;;;;;;;;;10.25;9.75;;;;;;;;5030908;28;8835;-85
2023/05/02 11:35:57;;;;;;;;;8.00;8.00;;;;;;;;5033277;28;9635;-82
2023/05/02 11:38:24;;;;;;;;;8.25;7.25;;;;;;;;5026033;28;8890;-87
2023/05/02 11:40:56;;;;;;;;;7.40;7.40;;;;;;;;5033984;28;8855;-86
2023/05/02 11:43:26;;;;;;;;;8.00;8.00;;;;;;;;5027078;28;8841;-80
2023/05/02 11:45:54;;;;;;;;;11.00;9.00;;;;;;;;5023654;28;8843;-85
2023/05/02 11:48:25;;;;;;;;;12.40;12.40;;;;;;;;5035343;28;8870;-81
2023/05/02 11:50:54;;;;;;;;;10.00;10.00;;;;;;;;5036154;28;8850;-81
2023/05/02 11:53:23;;;;;;;;;12.80;9.20;;;;;;;;5032794;28;8877;-81
2023/05/02 11:55:51;;;;;;;;;7.20;5.60;;;;;;;;5031598;28;8858;-77
2023/05/02 11:58:21;;;;;;;;;7.60;7.60;;;;;;;;5031211;28;8889;-79
2023/05/02 12:00:53;;;;;;;;;9.60;6.00;;;;;;;;5031026;28;8758;-76
2023/05/02 12:03:25;;;;;;;;;8.80;8.80;;;;;;;;5031577;28;8942;-78
2023/05/02 12:05:52;;;;;;;;;6.80;6.80;;;;;;;;5031013;28;8842;-80
2023/05/02 12:08:25;;;;;;;;;6.00;6.00;;;;;;;;5030676;28;8834;-79
2023/05/02 12:10:54;;;;;;;;;7.00;7.00;;;;;;;;5031291;28;8970;-79
2023/05/02 12:13:23;;;;;;;;;8.40;6.40;;;;;;;;5018182;28;8872;-76
2023/05/02 12:15:53;;;;;;;;;9.40;9.40;;;;;;;;5019313;28;8885;-79
2023/05/02 12:18:22;;;;;;;;;9.40;8.60;;;;;;;;5029681;28;8858;-81
2023/05/02 12:20:50;;;;;;;;;8.00;8.00;;;;;;;;5032440;28;8841;-80
2023/05/02 12:23:18;;;;;;;;;7.40;6.00;;;;;;;;5030398;28;8873;-79
2023/05/02 12:25:45;;;;;;;;;6.60;6.60;;;;;;;;5030472;28;8850;-77
2023/05/02 12:28:12;;;;;;;;;8.40;8.40;;;;;;;;5030248;28;8840;-80
2023/05/02 12:30:40;;;;;;;;;7.00;5.80;;;;;;;;5029815;28;8917;-79
2023/05/02 12:33:09;;;;;;;;;7.00;7.00;;;;;;;;5029487;28;8874;-77
2023/05/02 12:35:36;;;;;;;;;8.80;7.20;;;;;;;;5030006;28;9686;-79
2023/05/02 12:38:11;;;;;;;;;7.00;5.80;;;;;;;;5028152;28;9740;-76
2023/05/02 12:40:39;;;;;;;;;10.20;7.80;;;;;;;;5030287;28;9719;-80
2023/05/02 12:43:09;;;;;;;;;10.80;6.40;;;;;;;;5029580;28;8846;-80
2023/05/02 12:45:37;;;;;;;;;7.20;6.40;;;;;;;;5030023;28;8835;-77
2023/05/02 12:48:22;;;;;;;;;7.20;7.20;;;;;;;;5030577;28;8913;-77
2023/05/02 12:50:50;;;;;;;;;6.20;6.20;;;;;;;;5030536;28;8830;-78
2023/05/02 12:53:17;;;;;;;;;5.80;5.80;;;;;;;;5030454;28;8942;-79
2023/05/02 12:55:45;;;;;;;;;6.00;6.00;;;;;;;;5029290;28;8981;-73
2023/05/02 12:58:13;;;;;;;;;6.00;6.00;;;;;;;;5031077;28;8889;-83
2023/05/02 13:00:41;;;;;;;;;6.40;6.40;;;;;;;;5030186;28;8766;-77
2023/05/02 13:03:09;;;;;;;;;4.80;4.80;;;;;;;;5029974;28;8960;-77
2023/05/02 13:05:38;;;;;;;;;6.60;6.60;;;;;;;;5029774;28;9684;-78
2023/05/02 13:08:06;;;;;;;;;8.00;8.00;;;;;;;;5029361;28;8853;-78
2023/05/02 13:10:33;;;;;;;;;7.00;7.00;;;;;;;;5030492;28;8888;-76
2023/05/02 13:13:00;;;;;;;;;5.20;5.20;;;;;;;;5019785;28;8832;-79
2023/05/02 13:15:30;;;;;;;;;5.60;5.60;;;;;;;;5027796;28;8834;-76
2023/05/02 13:18:00;;;;;;;;;5.80;5.80;;;;;;;;5030025;28;8951;-80
2023/05/02 13:20:27;;;;;;;;;8.40;8.40;;;;;;;;5030226;28;8873;-75
2023/05/02 13:22:57;;;;;;;;;6.80;6.80;;;;;;;;5030298;28;8868;-81
2023/05/02 13:25:25;;;;;;;;;5.80;5.80;;;;;;;;5030730;28;8838;-78
2023/05/02 13:27:52;;;;;;;;;8.20;5.00;;;;;;;;5032212;28;8834;-82
2023/05/02 13:30:19;;;;;;;;;7.80;6.20;;;;;;;;5026971;28;9791;-80
2023/05/02 13:32:46;;;;;;;;;7.00;7.00;;;;;;;;5032476;28;8965;-84
2023/05/02 13:35:14;;;;;;;;;5.80;5.80;;;;;;;;5031865;28;8873;-81
2023/05/02 13:37:42;;;;;;;;;6.20;6.20;;;;;;;;5031749;28;8854;-80
2023/05/02 13:40:11;;;;;;;;;5.00;5.00;;;;;;;;5024606;28;8858;-79
2023/05/02 13:42:38;;;;;;;;;8.80;6.00;;;;;;;;5030305;28;8869;-78
2023/05/02 13:45:07;;;;;;;;;6.80;5.00;;;;;;;;5029561;28;8854;-78
2023/05/02 13:47:34;;;;;;;;;5.00;5.00;;;;;;;;5029602;28;8846;-83
2023/05/02 13:50:02;;;;;;;;;4.40;4.40;;;;;;;;5029128;28;8881;-79
2023/05/02 13:52:29;;;;;;;;;4.80;4.80;;;;;;;;5029068;28;8842;-78
2023/05/02 13:54:56;;;;;;;;;5.80;4.80;;;;;;;;5029093;28;8868;-80
2023/05/02 13:57:24;;;;;;;;;6.80;6.80;;;;;;;;5029367;28;8859;-76
2023/05/02 13:59:52;;;;;;;;;7.60;7.40;;;;;;;;5029009;28;8870;-79
2023/05/02 14:02:19;;;;;;;;;7.00;4.00;;;;;;;;5027264;28;8802;-78
2023/05/02 14:04:46;;;;;;;;;7.20;7.00;;;;;;;;5028907;28;8885;-75
2023/05/02 14:07:14;;;;;;;;;11.20;10.20;;;;;;;;5027713;28;8882;-78
2023/05/02 14:09:41;;;;;;;;;14.80;14.40;;;;;;;;5028661;28;8859;-80
2023/05/02 14:12:09;;;;;;;;;8.40;7.80;;;;;;;;5028198;28;8969;-79
2023/05/02 14:14:37;;;;;;;;;7.40;7.40;;;;;;;;5029964;28;8866;-78
2023/05/02 14:17:05;;;;;;;;;12.80;11.20;;;;;;;;5028297;28;8867;-77
2023/05/02 14:19:32;;;;;;;;;7.80;7.80;;;;;;;;5028943;28;8905;-78
2023/05/02 14:21:59;;;;;;;;;7.40;7.40;;;;;;;;5028008;28;8826;-78
2023/05/02 14:24:26;;;;;;;;;10.00;8.40;;;;;;;;5028874;28;8866;-76
2023/05/02 14:26:54;;;;;;;;;9.40;9.40;;;;;;;;5028588;28;8969;-79
2023/05/02 14:29:21;;;;;;;;;8.60;8.60;;;;;;;;5028254;28;8851;-81
2023/05/02 14:31:49;;;;;;;;;12.40;10.00;;;;;;;;5027257;28;8814;-76
2023/05/02 14:34:17;;;;;;;;;11.40;11.40;;;;;;;;5028581;28;8876;-78
2023/05/02 14:36:44;;;;;;;;;13.00;13.00;;;;;;;;5028528;28;8923;-80
2023/05/02 14:39:11;;;;;;;;;10.40;10.20;;;;;;;;5028301;28;8846;-81
2023/05/02 14:41:38;;;;;;;;;11.00;11.00;;;;;;;;5028883;28;8851;-81
2023/05/02 14:44:05;;;;;;;;;5.80;4.60;;;;;;;;5027730;28;8880;-80